Portada
METAR-TAF:

METAR-TAF

Aeropuertos :

Seldovia, Alaska, Estados Unidos

latitud: 59-27N, longitud: 151-42W, altitud: 9 m

Observación

El informe se hizo hace 43 minutos, a las 07:53 UTC
Viento 4 kt del norte
Temperatura -2°C
Humedad 93%
Presión 994 hPa
Cielo cubierto a una altura de 1700 ft
poca nieve

METAR: PASO 280753Z AUTO 01004KT -SN OVC017 M02/M03 A2935 RMK AO2 SLP940 P0001 T10171028 TSNO $

Hora: 23:36 (08:36 UTC)


TAF: falta

Observaciones y pronósticos meteorológicos de más de 4000 aeropuertos (mensajes METAR y TAF).

Los puntos amarillos y rojos representan las estaciones disponibles.

Ponga el ratón en el punto deseado para ver el nombre de la estación.

Haga clic para ver las observaciones y los pronósticos meteorológicos.

Para cambiar el mapa : haga clic en los botones verdes con una cruz de color negro para hacer un zoom, en el botón verde con un guión para alejar o en las flechas verdes para mapas adyacentes.


METAR-TAF: